This is the latest recevied weather packets stored in our database for station/object WD9EKA. If no packets are shown the sender has not sent any weather packets the latest 1 day(s).
| Time | Temp. | Humidity | Pressure | Rain* | Wind** | Luminosity | Snow |
|---|---|---|---|---|---|---|---|
| 1777997717 | 8.89° C | 99% | 1004.2 hPa | 3.05 mm | 0 m/s | - | - |
| 1777997397 | 8.89° C | 99% | 1004.1 hPa | 3.05 mm | 0 m/s | - | - |
| 1777997074 | 8.89° C | 99% | 1004.4 hPa | 3.05 mm | 0 m/s | - | - |
| 1777996757 | 8.89° C | 99% | 1004.5 hPa | 3.05 mm | 0 m/s | - | - |
| 1777996437 | 9.44° C | 99% | 1004.5 hPa | 2.79 mm | 0 m/s | - | - |
| 1777996113 | 9.44° C | 99% | 1004.9 hPa | 2.29 mm | 0 m/s | - | - |
| 1777995798 | 9.44° C | 99% | 1005 hPa | 2.29 mm | 0 m/s | - | - |
| 1777995477 | 9.44° C | 99% | 1004.7 hPa | 1.78 mm | 0.45 m/s, 313° | - | - |
| 1777995153 | 8.89° C | 99% | 1004.9 hPa | 1.52 mm | 0 m/s | - | - |
| 1777994837 | 8.89° C | 99% | 1005 hPa | 1.27 mm | 0 m/s | - | - |
| 1777994517 | 8.89° C | 99% | 1004.5 hPa | 1.02 mm | 0 m/s | - | - |
| 1777994197 | 8.89° C | 99% | 1005 hPa | 1.02 mm | 0.45 m/s, 283° | - | - |
| 1777993877 | 9.44° C | 99% | 1004.7 hPa | 1.02 mm | 0 m/s | - | - |
| 1777993557 | 9.44° C | 99% | 1004.8 hPa | 1.02 mm | 0 m/s | - | - |
| 1777993237 | 9.44° C | 99% | 1004.7 hPa | 0.76 mm | 0 m/s | - | - |
| 1777992917 | 9.44° C | 99% | 1004.9 hPa | 0.76 mm | 0 m/s | - | - |
| 1777992597 | 9.44° C | 99% | 1004.7 hPa | 0.76 mm | 0 m/s | - | - |
| 1777992277 | 10° C | 99% | 1004.7 hPa | 1.02 mm | 0.45 m/s, 317° | - | - |
| 1777991957 | 10.56° C | 99% | 1005.1 hPa | 1.52 mm | 0 m/s | - | - |
| 1777991637 | 11.11° C | 99% | 1005 hPa | 2.03 mm | 0.45 m/s, 252° | - | - |
| 1777991317 | 11.67° C | 99% | 1004.7 hPa | 1.78 mm | 0.45 m/s, 155° | - | - |
| 1777990997 | 11.67° C | 99% | 1004.8 hPa | 2.29 mm | 0 m/s | - | - |
| 1777990677 | 11.67° C | 99% | 1004.8 hPa | 2.79 mm | 0 m/s | - | - |
| 1777990357 | 12.22° C | 99% | 1004.3 hPa | 2.79 mm | 0 m/s | - | - |
| 1777989717 | 12.78° C | 99% | 1004.2 hPa | 2.79 mm | 0 m/s | - | - |
* Rain latest hour (hover to see other rain measurements)
** Current wind speed in m/s (hover to see current wind gust speed)